Wetterdaten: Woche 23.10.17 - 29.10.17 (KW43)
Datum Zeit Temp. A. Feuchte A. Luftdruck Regen Wind Richtung Taupunkt Windchill Windben
23.10.2017 00:00 10,4 C 77 % 1013,3 hPa 0,3 l/m 4,6 km/h N 6,5 C 10,4 C 14,1 km/h
23.10.2017 01:00 9,6 C 81 % 1012,8 hPa 0,0 l/m 3,2 km/h N 6,5 C 9,6 C 10,1 km/h
23.10.2017 02:00 9,3 C 81 % 1012,5 hPa 0,0 l/m 7,0 km/h N 6,3 C 8,8 C 17,3 km/h
23.10.2017 03:00 9,3 C 80 % 1012,0 hPa 0,3 l/m 9,1 km/h N 6,1 C 7,4 C 24,6 km/h
23.10.2017 04:00 8,8 C 81 % 1011,9 hPa 0,0 l/m 8,1 km/h N 5,7 C 7,6 C 21,7 km/h
23.10.2017 05:00 8,7 C 82 % 1012,0 hPa 0,5 l/m 9,5 km/h N 5,7 C 6,5 C 21,7 km/h
23.10.2017 06:00 8,4 C 82 % 1011,8 hPa 0,3 l/m 8,9 km/h N 5,6 C 6,5 C 23,3 km/h
23.10.2017 07:00 8,4 C 83 % 1011,7 hPa 0,0 l/m 10,6 km/h N 5,5 C 5,5 C 23,7 km/h
23.10.2017 08:00 8,8 C 81 % 1011,9 hPa 0,0 l/m 10,5 km/h N 5,7 C 6,0 C 26,6 km/h
23.10.2017 09:00 9,4 C 79 % 1012,0 hPa 0,0 l/m 11,3 km/h N 6,0 C 6,3 C 28,2 km/h
23.10.2017 10:00 9,9 C 78 % 1012,2 hPa 0,0 l/m 11,8 km/h N 6,3 C 6,5 C 28,2 km/h
23.10.2017 11:00 9,5 C 82 % 1012,4 hPa 1,6 l/m 8,6 km/h N 6,5 C 7,9 C 25,4 km/h
23.10.2017 12:00 9,1 C 83 % 1012,4 hPa 2,1 l/m 10,5 km/h N 6,4 C 6,3 C 29,8 km/h
23.10.2017 13:00 9,2 C 83 % 1012,4 hPa 0,8 l/m 11,6 km/h N 6,4 C 5,7 C 29,0 km/h
23.10.2017 14:00 9,1 C 83 % 1012,7 hPa 0,8 l/m 11,1 km/h N 6,3 C 5,9 C 28,1 km/h
23.10.2017 15:00 9,1 C 83 % 1013,0 hPa 0,8 l/m 10,4 km/h N 6,4 C 6,4 C 26,1 km/h
23.10.2017 16:00 9,4 C 82 % 1013,6 hPa 0,0 l/m 9,0 km/h N 6,4 C 7,5 C 24,1 km/h
23.10.2017 17:00 9,4 C 80 % 1014,2 hPa 0,3 l/m 10,4 km/h N 6,2 C 6,8 C 26,1 km/h
23.10.2017 18:00 9,9 C 78 % 1014,6 hPa 0,0 l/m 12,6 km/h N 6,2 C 6,1 C 33,0 km/h
23.10.2017 19:00 10,2 C 77 % 1015,3 hPa 0,0 l/m 12,6 km/h N 6,4 C 6,5 C 31,8 km/h
23.10.2017 20:00 10,3 C 77 % 1015,8 hPa 0,0 l/m 13,9 km/h N 6,4 C 6,0 C 33,4 km/h
23.10.2017 21:00 10,4 C 78 % 1016,5 hPa 0,0 l/m 13,3 km/h N 6,6 C 6,3 C 33,4 km/h
23.10.2017 22:00 10,4 C 78 % 1017,1 hPa 0,0 l/m 11,0 km/h N 6,7 C 7,5 C 31,0 km/h
23.10.2017 23:00 10,2 C 79 % 1017,7 hPa 0,0 l/m 12,6 km/h N 6,7 C 6,4 C 34,6 km/h
24.10.2017 00:00 10,1 C 79 % 1018,3 hPa 0,0 l/m 9,7 km/h N 6,6 C 7,8 C 29,4 km/h
24.10.2017 01:00 10,0 C 78 % 1018,6 hPa 0,0 l/m 9,9 km/h N 6,4 C 7,7 C 26,9 km/h
24.10.2017 02:00 9,9 C 79 % 1019,1 hPa 0,0 l/m 9,9 km/h N 6,4 C 7,7 C 25,7 km/h
24.10.2017 03:00 10,0 C 78 % 1019,5 hPa 0,0 l/m 10,0 km/h N 6,4 C 7,6 C 25,3 km/h
24.10.2017 04:00 10,1 C 78 % 1019,6 hPa 0,0 l/m 10,6 km/h N 6,4 C 7,4 C 27,8 km/h
24.10.2017 05:00 9,5 C 81 % 1020,2 hPa 0,3 l/m 10,3 km/h N 6,3 C 6,9 C 24,5 km/h
24.10.2017 06:00 9,1 C 82 % 1020,8 hPa 0,0 l/m 7,4 km/h N 6,2 C 8,4 C 20,5 km/h
24.10.2017 07:00 8,9 C 82 % 1021,4 hPa 0,0 l/m 9,2 km/h N 6,0 C 6,9 C 22,9 km/h
24.10.2017 08:00 9,4 C 81 % 1022,0 hPa 0,0 l/m 9,8 km/h N 6,4 C 7,1 C 22,1 km/h
24.10.2017 09:00 9,9 C 81 % 1022,8 hPa 0,0 l/m 7,1 km/h N 6,8 C 9,3 C 22,1 km/h
24.10.2017 10:00 10,9 C 79 % 1022,9 hPa 0,0 l/m 9,8 km/h N 7,4 C 8,7 C 26,5 km/h
24.10.2017 11:00 11,6 C 78 % 1023,2 hPa 0,0 l/m 11,0 km/h N 7,8 C 9,0 C 25,3 km/h
24.10.2017 12:00 12,1 C 77 % 1023,7 hPa 0,0 l/m 9,1 km/h N 8,2 C 10,4 C 24,1 km/h
24.10.2017 13:00 12,2 C 78 % 1023,5 hPa 0,0 l/m 9,8 km/h N 8,5 C 10,2 C 23,3 km/h
24.10.2017 14:00 12,1 C 79 % 1023,3 hPa 0,0 l/m 7,1 km/h N 8,5 C 11,6 C 22,9 km/h
24.10.2017 15:00 11,6 C 82 % 1023,4 hPa 0,0 l/m 4,2 km/h N 8,6 C 11,6 C 12,9 km/h
24.10.2017 16:00 11,8 C 82 % 1023,4 hPa 0,0 l/m 6,0 km/h N 8,7 C 11,4 C 17,7 km/h
24.10.2017 17:00 11,8 C 80 % 1024,1 hPa 0,0 l/m 6,5 km/h N 8,5 C 11,0 C 17,3 km/h
24.10.2017 18:00 11,6 C 80 % 1024,8 hPa 0,0 l/m 4,2 km/h N 8,2 C 11,6 C 12,9 km/h
24.10.2017 19:00 11,6 C 79 % 1025,2 hPa 0,0 l/m 4,2 km/h N 8,0 C 11,6 C 12,9 km/h
24.10.2017 20:00 11,7 C 77 % 1025,2 hPa 0,0 l/m 5,7 km/h N 7,9 C 11,7 C 16,9 km/h
24.10.2017 21:00 11,8 C 76 % 1025,0 hPa 0,0 l/m 5,7 km/h N 7,7 C 11,7 C 17,7 km/h
24.10.2017 22:00 11,7 C 76 % 1025,2 hPa 0,0 l/m 5,5 km/h N 7,5 C 11,3 C 14,5 km/h
24.10.2017 23:00 11,2 C 76 % 1025,2 hPa 0,0 l/m 3,3 km/h N 7,0 C 11,2 C 12,1 km/h
25.10.2017 00:00 10,6 C 77 % 1025,0 hPa 0,0 l/m 0,9 km/h N 6,7 C 10,6 C 6,9 km/h
25.10.2017 01:00 9,7 C 81 % 1024,7 hPa 0,0 l/m 0,2 km/h N 6,6 C 9,7 C 4,0 km/h
25.10.2017 02:00 9,3 C 82 % 1024,4 hPa 0,0 l/m 0,1 km/h N 6,4 C 9,3 C 2,0 km/h
25.10.2017 03:00 8,8 C 82 % 1024,5 hPa 0,0 l/m 0,0 km/h N 5,9 C 8,8 C 1,6 km/h
25.10.2017 04:00 7,9 C 82 % 1024,3 hPa 0,0 l/m 0,0 km/h N 5,0 C 7,9 C 0,0 km/h
25.10.2017 05:00 6,8 C 83 % 1024,3 hPa 0,0 l/m 0,0 km/h N 4,2 C 6,8 C 0,4 km/h
25.10.2017 06:00 6,7 C 83 % 1024,1 hPa 0,0 l/m 0,0 km/h N 4,0 C 6,7 C 0,0 km/h
25.10.2017 07:00 7,4 C 83 % 1023,9 hPa 0,0 l/m 0,0 km/h N 4,7 C 7,4 C 0,0 km/h
25.10.2017 08:00 8,5 C 83 % 1024,3 hPa 0,0 l/m 0,0 km/h N 5,7 C 8,5 C 0,0 km/h
25.10.2017 09:00 9,8 C 83 % 1024,3 hPa 0,0 l/m 0,1 km/h N 7,0 C 9,8 C 2,8 km/h
25.10.2017 10:00 11,2 C 83 % 1024,3 hPa 0,0 l/m 0,2 km/h N 8,4 C 11,2 C 4,4 km/h
25.10.2017 11:00 12,8 C 81 % 1024,2 hPa 0,0 l/m 0,0 km/h N 9,5 C 12,8 C 2,0 km/h
25.10.2017 12:00 14,2 C 78 % 1024,2 hPa 0,0 l/m 0,0 km/h N 10,4 C 14,2 C 0,8 km/h
25.10.2017 13:00 16,4 C 68 % 1023,6 hPa 0,0 l/m 0,6 km/h N 10,3 C 16,4 C 5,2 km/h
25.10.2017 14:00 17,5 C 65 % 1023,0 hPa 0,0 l/m 0,1 km/h N 10,8 C 17,5 C 3,2 km/h
25.10.2017 15:00 17,5 C 64 % 1022,7 hPa 0,0 l/m 0,2 km/h N 10,6 C 17,5 C 3,2 km/h
25.10.2017 16:00 16,9 C 66 % 1022,6 hPa 0,0 l/m 0,2 km/h N 10,6 C 16,9 C 4,0 km/h
25.10.2017 17:00 16,2 C 69 % 1022,5 hPa 0,0 l/m 0,2 km/h N 10,5 C 16,2 C 3,2 km/h
25.10.2017 18:00 14,9 C 72 % 1022,6 hPa 0,0 l/m 0,0 km/h N 9,9 C 14,9 C 1,2 km/h
25.10.2017 19:00 12,4 C 78 % 1022,9 hPa 0,0 l/m 0,0 km/h N 8,7 C 12,4 C 1,2 km/h
25.10.2017 20:00 11,0 C 81 % 1023,1 hPa 0,0 l/m 0,0 km/h N 7,9 C 11,0 C 1,6 km/h
25.10.2017 21:00 10,4 C 82 % 1023,2 hPa 0,0 l/m 0,0 km/h N 7,5 C 10,4 C 0,8 km/h
25.10.2017 22:00 9,4 C 82 % 1023,6 hPa 0,0 l/m 0,0 km/h N 6,5 C 9,4 C 0,4 km/h
25.10.2017 23:00 8,7 C 83 % 1024,0 hPa 0,0 l/m 0,0 km/h N 6,0 C 8,7 C 0,0 km/h
26.10.2017 00:00 8,8 C 83 % 1024,1 hPa 0,0 l/m 0,0 km/h N 6,1 C 8,8 C 0,0 km/h
26.10.2017 01:00 9,5 C 83 % 1024,2 hPa 0,0 l/m 0,0 km/h N 6,7 C 9,5 C 0,0 km/h
26.10.2017 02:00 10,0 C 83 % 1024,5 hPa 0,0 l/m 0,0 km/h N 7,2 C 10,0 C 0,0 km/h
26.10.2017 03:00 8,9 C 83 % 1024,5 hPa 0,0 l/m 0,0 km/h N 6,2 C 8,9 C 0,4 km/h
26.10.2017 04:00 8,1 C 83 % 1024,5 hPa 0,0 l/m 0,0 km/h N 5,4 C 8,1 C 0,0 km/h
26.10.2017 05:00 7,6 C 83 % 1024,8 hPa 0,0 l/m 0,0 km/h N 4,9 C 7,6 C 0,0 km/h
26.10.2017 06:00 7,4 C 83 % 1025,1 hPa 0,0 l/m 0,0 km/h N 4,7 C 7,4 C 0,0 km/h
26.10.2017 07:00 7,5 C 83 % 1025,0 hPa 0,0 l/m 0,0 km/h N 4,8 C 7,5 C 0,0 km/h
26.10.2017 08:00 8,2 C 84 % 1025,2 hPa 0,0 l/m 0,0 km/h N 5,6 C 8,2 C 0,0 km/h
26.10.2017 09:00 9,9 C 84 % 1025,3 hPa 0,0 l/m 0,0 km/h N 7,3 C 9,9 C 0,0 km/h
26.10.2017 10:00 12,2 C 83 % 1025,0 hPa 0,0 l/m 0,1 km/h N 9,4 C 12,2 C 3,2 km/h
26.10.2017 11:00 15,1 C 82 % 1024,7 hPa 0,0 l/m 2,0 km/h N 11,9 C 15,1 C 8,1 km/h
26.10.2017 12:00 17,1 C 72 % 1024,2 hPa 0,0 l/m 5,1 km/h N 12,0 C 17,0 C 15,3 km/h
26.10.2017 13:00 17,9 C 71 % 1023,4 hPa 0,0 l/m 4,7 km/h N 12,5 C 17,9 C 14,5 km/h
26.10.2017 14:00 18,5 C 68 % 1022,6 hPa 0,0 l/m 6,8 km/h N 12,5 C 18,1 C 20,9 km/h
26.10.2017 15:00 18,5 C 68 % 1022,1 hPa 0,0 l/m 3,7 km/h N 12,4 C 18,5 C 15,7 km/h
26.10.2017 16:00 19,0 C 69 % 1021,8 hPa 0,0 l/m 0,3 km/h N 13,0 C 19,0 C 5,6 km/h
26.10.2017 17:00 18,0 C 68 % 1021,6 hPa 0,0 l/m 0,0 km/h N 12,1 C 18,0 C 1,6 km/h
26.10.2017 18:00 16,0 C 72 % 1021,7 hPa 0,0 l/m 0,0 km/h N 10,9 C 16,0 C 0,4 km/h
26.10.2017 19:00 13,1 C 77 % 1021,6 hPa 0,0 l/m 0,0 km/h N 9,3 C 13,1 C 0,0 km/h
26.10.2017 20:00 11,5 C 81 % 1021,4 hPa 0,0 l/m 0,1 km/h N 8,4 C 11,5 C 2,0 km/h
26.10.2017 21:00 14,0 C 81 % 1021,1 hPa 0,0 l/m 2,0 km/h N 10,7 C 14,0 C 10,5 km/h
26.10.2017 22:00 14,5 C 78 % 1020,9 hPa 0,0 l/m 1,7 km/h N 10,7 C 14,5 C 7,6 km/h
26.10.2017 23:00 14,1 C 80 % 1020,3 hPa 0,0 l/m 1,5 km/h N 10,7 C 14,1 C 10,1 km/h
27.10.2017 00:00 15,1 C 79 % 1019,8 hPa 0,0 l/m 7,9 km/h N 11,5 C 14,1 C 22,1 km/h
27.10.2017 01:00 14,9 C 78 % 1019,4 hPa 0,0 l/m 5,4 km/h N 11,0 C 14,9 C 14,1 km/h
27.10.2017 02:00 14,1 C 79 % 1019,1 hPa 0,0 l/m 3,7 km/h N 10,5 C 14,1 C 12,5 km/h
27.10.2017 03:00 13,4 C 79 % 1018,3 hPa 0,0 l/m 0,6 km/h N 9,9 C 13,4 C 5,6 km/h
27.10.2017 04:00 13,1 C 81 % 1017,3 hPa 0,0 l/m 0,9 km/h N 9,9 C 13,1 C 4,8 km/h
27.10.2017 05:00 14,0 C 81 % 1016,4 hPa 0,0 l/m 3,3 km/h N 10,9 C 14,0 C 11,3 km/h
27.10.2017 06:00 14,7 C 80 % 1015,3 hPa 0,0 l/m 1,5 km/h N 11,3 C 14,7 C 6,0 km/h
27.10.2017 07:00 14,4 C 81 % 1014,5 hPa 0,5 l/m 0,3 km/h N 11,2 C 14,4 C 3,6 km/h
27.10.2017 08:00 13,5 C 82 % 1014,0 hPa 1,6 l/m 0,0 km/h N 10,5 C 13,5 C 0,8 km/h
27.10.2017 09:00 13,2 C 82 % 1013,2 hPa 0,0 l/m 0,0 km/h N 10,2 C 13,2 C 1,6 km/h
27.10.2017 10:00 14,0 C 82 % 1012,8 hPa 0,0 l/m 2,8 km/h N 11,0 C 14,0 C 13,7 km/h
27.10.2017 11:00 15,2 C 78 % 1012,1 hPa 0,0 l/m 5,9 km/h N 11,5 C 14,9 C 21,3 km/h
27.10.2017 12:00 10,9 C 79 % 1015,0 hPa 1,0 l/m 13,6 km/h N 7,3 C 6,9 C 36,2 km/h
27.10.2017 13:00 8,9 C 82 % 1016,6 hPa 1,8 l/m 9,0 km/h N 6,0 C 7,0 C 27,0 km/h
27.10.2017 14:00 8,5 C 83 % 1016,8 hPa 2,1 l/m 7,1 km/h N 5,8 C 7,9 C 22,9 km/h
27.10.2017 15:00 9,4 C 80 % 1016,8 hPa 0,0 l/m 11,6 km/h N 6,1 C 6,2 C 29,3 km/h
27.10.2017 16:00 9,5 C 78 % 1016,8 hPa 0,0 l/m 14,3 km/h N 5,9 C 4,9 C 38,2 km/h
27.10.2017 17:00 9,7 C 77 % 1016,9 hPa 0,3 l/m 12,9 km/h N 5,9 C 5,7 C 36,6 km/h
27.10.2017 18:00 10,0 C 75 % 1017,3 hPa 0,0 l/m 16,5 km/h N 5,7 C 4,5 C 36,6 km/h
27.10.2017 19:00 10,3 C 76 % 1018,7 hPa 0,0 l/m 13,9 km/h N 6,1 C 6,0 C 37,8 km/h
27.10.2017 20:00 10,3 C 77 % 1018,6 hPa 0,0 l/m 14,8 km/h N 6,4 C 5,6 C 37,4 km/h
27.10.2017 21:00 10,3 C 75 % 1018,8 hPa 0,0 l/m 18,2 km/h N 6,1 C 4,3 C 39,4 km/h
27.10.2017 22:00 10,3 C 75 % 1019,6 hPa 0,0 l/m 16,5 km/h N 6,1 C 5,0 C 38,2 km/h
27.10.2017 23:00 10,4 C 75 % 1020,2 hPa 0,0 l/m 12,6 km/h N 6,2 C 6,6 C 31,8 km/h
28.10.2017 00:00 10,4 C 75 % 1020,6 hPa 0,0 l/m 15,5 km/h N 6,1 C 5,4 C 33,0 km/h
28.10.2017 01:00 9,8 C 78 % 1021,0 hPa 0,8 l/m 13,0 km/h N 6,1 C 5,8 C 31,8 km/h
28.10.2017 02:00 9,7 C 77 % 1020,7 hPa 0,0 l/m 11,9 km/h N 5,9 C 6,3 C 30,6 km/h
28.10.2017 03:00 9,3 C 77 % 1020,4 hPa 0,0 l/m 11,3 km/h N 5,5 C 6,1 C 28,6 km/h
28.10.2017 04:00 9,1 C 77 % 1019,9 hPa 0,0 l/m 10,7 km/h N 5,3 C 6,2 C 25,3 km/h
28.10.2017 05:00 9,5 C 75 % 1019,7 hPa 0,0 l/m 9,2 km/h N 5,2 C 7,6 C 24,5 km/h
28.10.2017 06:00 9,6 C 75 % 1019,0 hPa 0,0 l/m 8,9 km/h N 5,3 C 7,9 C 22,9 km/h
28.10.2017 07:00 9,6 C 76 % 1018,5 hPa 0,0 l/m 9,9 km/h N 5,6 C 7,2 C 25,7 km/h
28.10.2017 08:00 10,0 C 75 % 1018,5 hPa 0,0 l/m 9,6 km/h N 5,7 C 7,9 C 24,9 km/h
28.10.2017 09:00 10,4 C 73 % 1018,5 hPa 0,0 l/m 11,2 km/h N 5,7 C 7,4 C 29,4 km/h
28.10.2017 10:00 10,4 C 74 % 1018,1 hPa 0,0 l/m 10,6 km/h N 6,0 C 7,8 C 29,0 km/h
28.10.2017 11:00 10,8 C 70 % 1017,6 hPa 0,0 l/m 10,9 km/h N 5,6 C 8,0 C 32,6 km/h
28.10.2017 12:00 10,7 C 68 % 1016,9 hPa 0,0 l/m 11,9 km/h N 5,1 C 7,4 C 34,6 km/h
28.10.2017 13:00 10,6 C 67 % 1016,1 hPa 0,3 l/m 15,3 km/h N 4,8 C 5,8 C 42,3 km/h
28.10.2017 14:00 10,6 C 67 % 1015,0 hPa 0,0 l/m 13,9 km/h N 4,7 C 6,3 C 37,8 km/h
28.10.2017 15:00 11,1 C 62 % 1014,8 hPa 0,0 l/m 12,6 km/h N 4,0 C 7,5 C 31,0 km/h
28.10.2017 16:00 10,7 C 63 % 1014,0 hPa 0,0 l/m 12,7 km/h N 3,9 C 7,0 C 35,8 km/h
28.10.2017 17:00 10,5 C 65 % 1013,6 hPa 0,0 l/m 13,3 km/h N 4,2 C 6,5 C 34,6 km/h
28.10.2017 18:00 10,8 C 61 % 1013,1 hPa 0,0 l/m 17,2 km/h N 3,6 C 5,3 C 41,8 km/h
28.10.2017 19:00 10,9 C 61 % 1012,4 hPa 0,0 l/m 17,0 km/h N 3,6 C 5,5 C 47,9 km/h
28.10.2017 20:00 11,1 C 61 % 1011,9 hPa 0,0 l/m 17,0 km/h N 3,8 C 5,7 C 45,8 km/h
28.10.2017 21:00 11,3 C 59 % 1011,3 hPa 0,0 l/m 16,8 km/h N 3,6 C 6,0 C 46,3 km/h
28.10.2017 22:00 11,5 C 58 % 1010,9 hPa 0,0 l/m 15,8 km/h N 3,5 C 6,6 C 49,1 km/h
28.10.2017 23:00 11,2 C 60 % 1010,5 hPa 0,0 l/m 18,2 km/h N 3,8 C 5,4 C 47,5 km/h
29.10.2017 00:00 10,8 C 61 % 1009,2 hPa 0,0 l/m 17,8 km/h N 3,7 C 5,1 C 44,7 km/h
29.10.2017 01:00 10,4 C 64 % 1007,9 hPa 0,0 l/m 14,4 km/h N 3,9 C 6,1 C 40,3 km/h
29.10.2017 02:00 8,9 C 72 % 1005,9 hPa 0,0 l/m 10,4 km/h N 4,1 C 6,2 C 36,2 km/h
29.10.2017 03:00 8,6 C 78 % 1003,3 hPa 0,8 l/m 12,4 km/h N 5,0 C 4,6 C 39,4 km/h
29.10.2017 04:00 9,3 C 81 % 1000,9 hPa 2,1 l/m 11,0 km/h N 6,1 C 6,2 C 41,0 km/h
29.10.2017 05:00 9,9 C 82 % 998,5 hPa 2,6 l/m 11,1 km/h N 7,0 C 7,0 C 39,4 km/h
29.10.2017 06:00 10,8 C 81 % 995,5 hPa 3,1 l/m 20,3 km/h N 7,7 C 4,3 C 55,5 km/h
29.10.2017 07:00 12,5 C 75 % 994,4 hPa 0,0 l/m 18,5 km/h N 8,2 C 6,9 C 57,5 km/h
29.10.2017 08:00 13,4 C 71 % 993,1 hPa 0,0 l/m 17,6 km/h N 8,2 C 8,4 C 60,8 km/h
29.10.2017 09:00 13,8 C 69 % 992,4 hPa 0,0 l/m 15,5 km/h N 8,1 C 9,5 C 51,9 km/h
29.10.2017 10:00 14,2 C 66 % 992,7 hPa 1,6 l/m 21,5 km/h N 7,9 C 8,3 C 55,9 km/h
29.10.2017 11:00 9,1 C 81 % 994,8 hPa 8,8 l/m 19,7 km/h N 5,9 C 2,3 C 49,9 km/h
29.10.2017 12:00 10,6 C 67 % 995,0 hPa 0,0 l/m 16,9 km/h N 4,8 C 5,2 C 37,0 km/h
29.10.2017 13:00 12,3 C 56 % 995,9 hPa 0,0 l/m 17,3 km/h N 3,7 C 7,1 C 42,3 km/h
29.10.2017 14:00 12,6 C 48 % 997,5 hPa 0,0 l/m 24,7 km/h N 1,8 C 5,4 C 57,5 km/h
29.10.2017 15:00 12,0 C 48 % 999,1 hPa 0,0 l/m 23,3 km/h N 1,4 C 5,0 C 48,7 km/h
29.10.2017 16:00 11,6 C 48 % 1001,1 hPa 0,0 l/m 19,7 km/h N 1,0 C 5,5 C 47,0 km/h
29.10.2017 17:00 10,7 C 48 % 1002,9 hPa 0,0 l/m 22,9 km/h N 0,2 C 3,3 C 54,7 km/h
29.10.2017 18:00 9,8 C 53 % 1004,5 hPa 0,0 l/m 20,3 km/h N 0,6 C 2,9 C 45,1 km/h
29.10.2017 19:00 9,3 C 57 % 1005,9 hPa 0,0 l/m 19,3 km/h N 1,2 C 2,7 C 47,5 km/h
29.10.2017 20:00 8,1 C 64 % 1007,8 hPa 0,0 l/m 14,7 km/h N 1,7 C 2,9 C 34,2 km/h
29.10.2017 21:00 6,7 C 70 % 1009,1 hPa 0,3 l/m 18,1 km/h N 1,7 C -0,1 C 45,4 km/h
29.10.2017 22:00 6,4 C 71 % 1009,9 hPa 0,0 l/m 13,9 km/h N 1,4 C 1,4 C 31,8 km/h
29.10.2017 23:00 6,2 C 70 % 1009,8 hPa 0,0 l/m 14,4 km/h N 1,0 C 1,0 C 39,8 km/h
Min-Datum _ 29.10.17 29.10.17 29.10.17 - 25.10.17 - 29.10.17 29.10.17 25.10.17
_ Min-Zeit 23:30 16:45 10:00 - 00:30 - 17:00 21:15 02:45
Minimum _ 6,1 C 45 % 991,6 hPa - 0,0 km/h - -0,1 C -1,5 C 0,0 km/h
Max-Datum _ 26.10.17 26.10.17 26.10.17 29.10.17 29.10.17 - 26.10.17 26.10.17 29.10.17
_ Max-Zeit 16:30 07:30 09:15 11:00 10:45 - 16:30 16:30 08:15
Maximum _ 19,2 C 84 % 1025,5 hPa 8,8 l/m 26,4 km/h
N
- 13,4 C 19,2 C 69,2 km/h
N
Durchschnitt _ 11,0 C 76 % 1016,8 hPa #35,4 l/m 8,2 km/h N 6,8 C 8,9 C 22,4 km/h